Time;durP1;ratioP1;P1;durP2;ratioP2;P2;SDS_P1;SDS_P2;PMS_P1;PMS_P2;Temp;Humidity;BMP_temperature;BMP_pressure;BME280_temperature;BME280_humidity;BME280_pressure;Samples;Min_cycle;Max_cycle;Signal;HPM_P1;HPM_P2
2024/03/09 00:00:33;;;;;;;12.43;7.40;;;5.70;99.90;;;;;;5212434;22;20504;-72
2024/03/09 00:03:01;;;;;;;15.93;7.20;;;5.70;99.90;;;;;;5011655;28;20571;-73
2024/03/09 00:05:28;;;;;;;19.97;10.20;;;5.60;99.90;;;;;;5014105;28;20515;-73
2024/03/09 00:07:58;;;;;;;15.67;8.57;;;5.60;99.90;;;;;;5012061;28;20659;-72
2024/03/09 00:10:27;;;;;;;15.70;9.80;;;5.70;99.90;;;;;;5004154;28;20919;-72
2024/03/09 00:12:54;;;;;;;16.40;11.50;;;5.70;99.90;;;;;;4997608;28;20473;-72
2024/03/09 00:15:23;;;;;;;11.70;7.67;;;5.60;99.90;;;;;;4993878;28;20486;-72
2024/03/09 00:17:51;;;;;;;5.10;4.53;;;5.60;99.90;;;;;;4987333;28;20942;-72
2024/03/09 00:20:21;;;;;;;20.63;12.77;;;5.60;99.90;;;;;;4993842;28;21449;-72
2024/03/09 00:22:48;;;;;;;20.63;7.67;;;5.60;99.90;;;;;;4984667;28;20892;-72
2024/03/09 00:25:17;;;;;;;6.80;4.47;;;5.50;99.90;;;;;;4994290;28;20453;-72
2024/03/09 00:27:44;;;;;;;16.03;8.93;;;5.50;99.90;;;;;;4988196;28;20481;-73
2024/03/09 00:30:17;;;;;;;16.93;7.30;;;5.40;99.90;;;;;;4995455;28;20478;-73
2024/03/09 00:32:44;;;;;;;15.50;7.80;;;5.40;99.90;;;;;;4995024;28;20470;-72
2024/03/09 00:35:11;;;;;;;17.67;9.00;;;5.40;99.90;;;;;;4988023;28;20460;-72
2024/03/09 00:37:38;;;;;;;20.57;10.27;;;5.30;99.90;;;;;;4991604;28;20526;-72
2024/03/09 00:40:08;;;;;;;27.23;10.37;;;5.30;99.90;;;;;;4995122;28;20894;-72
2024/03/09 00:42:36;;;;;;;20.17;10.40;;;5.30;99.90;;;;;;4993669;28;20534;-72
2024/03/09 00:45:04;;;;;;;16.93;9.67;;;5.30;99.90;;;;;;4985161;28;20462;-72
2024/03/09 00:47:31;;;;;;;17.37;10.40;;;5.30;99.90;;;;;;4991515;28;20527;-72
2024/03/09 00:49:58;;;;;;;8.60;6.33;;;5.30;99.90;;;;;;4977250;28;20480;-72
2024/03/09 00:52:26;;;;;;;10.87;6.30;;;5.30;99.90;;;;;;4992492;28;20846;-72
2024/03/09 00:54:53;;;;;;;9.33;4.53;;;5.30;99.90;;;;;;4994478;28;20452;-72
2024/03/09 00:57:20;;;;;;;9.20;7.40;;;5.30;99.90;;;;;;4995058;28;20548;-72
2024/03/09 00:59:49;;;;;;;11.73;7.20;;;5.20;99.90;;;;;;4991708;28;20858;-72
2024/03/09 01:02:16;;;;;;;17.80;11.60;;;5.20;99.90;;;;;;4992261;28;20440;-72
2024/03/09 01:04:42;;;;;;;8.30;6.33;;;5.20;99.90;;;;;;4993238;28;20423;-72
2024/03/09 01:07:10;;;;;;;7.10;5.93;;;5.20;99.90;;;;;;4994058;28;20457;-72
2024/03/09 01:09:37;;;;;;;11.30;6.77;;;5.20;99.90;;;;;;5003663;28;20468;-73
2024/03/09 01:12:05;;;;;;;13.33;5.80;;;5.20;99.90;;;;;;5003098;28;20436;-74
2024/03/09 01:14:32;;;;;;;15.33;9.20;;;5.20;99.90;;;;;;4990609;28;20489;-72
2024/03/09 01:17:00;;;;;;;25.97;12.53;;;5.10;99.90;;;;;;4993048;28;20461;-72
2024/03/09 01:19:27;;;;;;;18.47;10.60;;;5.20;99.90;;;;;;4991412;28;20481;-72
2024/03/09 01:21:59;;;;;;;19.17;11.10;;;5.20;99.90;;;;;;4992215;28;20470;-72
2024/03/09 01:24:26;;;;;;;18.23;8.03;;;5.30;99.90;;;;;;4990998;28;20489;-72
2024/03/09 01:26:53;;;;;;;16.33;10.47;;;5.30;99.90;;;;;;4994624;28;21061;-73
2024/03/09 01:29:20;;;;;;;23.30;11.60;;;5.30;99.90;;;;;;4999335;28;20553;-71
2024/03/09 01:31:49;;;;;;;18.37;9.37;;;5.30;99.90;;;;;;4991992;28;20798;-72
2024/03/09 01:34:17;;;;;;;23.20;11.57;;;5.20;99.90;;;;;;4994607;28;20454;-72
2024/03/09 01:36:44;;;;;;;18.47;10.40;;;5.10;99.90;;;;;;4991876;28;20473;-72
2024/03/09 01:39:11;;;;;;;27.30;10.30;;;5.00;99.90;;;;;;4998025;28;20742;-72
2024/03/09 01:41:39;;;;;;;19.40;9.83;;;4.80;99.90;;;;;;4999044;28;20516;-72
2024/03/09 01:44:10;;;;;;;18.03;9.93;;;4.80;99.90;;;;;;4993924;28;20490;-72
2024/03/09 01:46:40;;;;;;;13.33;8.73;;;4.80;99.90;;;;;;4999443;28;20444;-72
2024/03/09 01:49:08;;;;;;;18.03;10.47;;;4.80;99.90;;;;;;4992241;28;20453;-73
2024/03/09 01:51:37;;;;;;;15.63;8.93;;;4.90;99.90;;;;;;4996517;28;20440;-72
2024/03/09 01:54:10;;;;;;;20.57;10.23;;;4.90;99.90;;;;;;4992306;28;20476;-72
2024/03/09 01:56:37;;;;;;;23.37;11.20;;;4.80;99.90;;;;;;4996061;28;20523;-72
2024/03/09 01:59:07;;;;;;;15.43;9.80;;;4.70;99.90;;;;;;4993970;28;20478;-71
2024/03/09 02:01:36;;;;;;;15.70;8.70;;;4.70;99.90;;;;;;4991694;28;20456;-72
2024/03/09 02:04:04;;;;;;;18.57;8.67;;;4.70;99.90;;;;;;4992852;28;20523;-73
2024/03/09 02:06:32;;;;;;;23.30;8.70;;;4.60;99.90;;;;;;4985635;28;20468;-74
2024/03/09 02:09:07;;;;;;;19.70;9.20;;;4.60;99.90;;;;;;4990155;28;20449;-72
2024/03/09 02:11:36;;;;;;;13.50;6.93;;;4.60;99.90;;;;;;4998480;28;20530;-72
2024/03/09 02:14:04;;;;;;;16.13;4.80;;;4.50;99.90;;;;;;4988840;28;20481;-71
2024/03/09 02:16:31;;;;;;;18.43;8.90;;;4.50;99.90;;;;;;4998840;28;20502;-72
2024/03/09 02:18:58;;;;;;;13.53;9.87;;;4.50;99.90;;;;;;4987419;28;20477;-72
2024/03/09 02:21:25;;;;;;;26.63;8.90;;;4.50;99.90;;;;;;4984401;28;20440;-72
2024/03/09 02:23:55;;;;;;;19.00;6.67;;;4.50;99.90;;;;;;4986770;28;20573;-72
2024/03/09 02:26:24;;;;;;;11.10;7.70;;;4.50;99.90;;;;;;4982009;28;20428;-72
2024/03/09 02:28:54;;;;;;;14.30;5.03;;;4.50;99.90;;;;;;4990515;28;20455;-72
2024/03/09 02:31:22;;;;;;;19.83;6.70;;;4.50;99.90;;;;;;4996901;28;20487;-72
2024/03/09 02:33:52;;;;;;;20.30;8.50;;;4.40;99.90;;;;;;4979975;28;20472;-72
2024/03/09 02:36:24;;;;;;;18.83;10.10;;;4.40;99.90;;;;;;4994154;28;20466;-71
2024/03/09 02:38:51;;;;;;;18.93;10.20;;;4.40;99.90;;;;;;4991548;28;20465;-72
2024/03/09 02:41:18;;;;;;;11.10;8.03;;;4.30;99.90;;;;;;4990252;28;20976;-71
2024/03/09 02:43:46;;;;;;;14.57;8.10;;;4.30;99.90;;;;;;4989073;28;20459;-71
2024/03/09 02:46:15;;;;;;;16.33;7.87;;;4.40;99.90;;;;;;4996679;28;20439;-71
2024/03/09 02:48:43;;;;;;;18.53;9.90;;;4.40;99.90;;;;;;4989011;28;20456;-72
2024/03/09 02:51:10;;;;;;;15.03;10.07;;;4.40;99.90;;;;;;4990813;28;20519;-72
2024/03/09 02:53:37;;;;;;;17.10;9.63;;;4.40;99.90;;;;;;4997351;28;20510;-72
2024/03/09 02:56:04;;;;;;;20.17;10.33;;;4.40;99.90;;;;;;4992393;28;20479;-72
2024/03/09 02:58:32;;;;;;;10.23;7.13;;;4.40;99.90;;;;;;4994338;28;20446;-73
2024/03/09 03:01:00;;;;;;;15.00;9.40;;;4.30;99.90;;;;;;4990665;28;20527;-73
2024/03/09 03:06:11;;;;;;;19.90;9.40;;;4.20;99.90;;;;;;4992063;28;20440;-71
2024/03/09 03:08:38;;;;;;;11.17;5.03;;;4.20;99.90;;;;;;4995713;28;20556;-72
2024/03/09 03:11:05;;;;;;;16.87;9.23;;;4.20;99.90;;;;;;4994669;28;20447;-73
2024/03/09 03:13:33;;;;;;;10.80;8.70;;;4.20;99.90;;;;;;4997830;28;20461;-72
2024/03/09 03:16:01;;;;;;;18.97;10.93;;;4.10;99.90;;;;;;4986506;28;20477;-72
2024/03/09 03:18:28;;;;;;;28.50;11.97;;;4.10;99.90;;;;;;4989252;28;20980;-72
2024/03/09 03:20:57;;;;;;;15.77;9.50;;;4.20;99.90;;;;;;4989103;28;20604;-72
2024/03/09 03:23:24;;;;;;;12.80;9.10;;;4.30;99.90;;;;;;4981042;28;21111;-73
2024/03/09 03:25:51;;;;;;;21.13;9.80;;;4.30;99.90;;;;;;4982167;28;20582;-72
2024/03/09 03:28:18;;;;;;;16.37;9.27;;;4.40;99.90;;;;;;4989427;28;20975;-72
2024/03/09 03:30:45;;;;;;;21.80;10.00;;;4.30;99.90;;;;;;4985240;28;20475;-71
2024/03/09 03:33:13;;;;;;;28.60;12.63;;;4.30;99.90;;;;;;4991772;28;20458;-72
2024/03/09 03:35:40;;;;;;;16.57;8.50;;;4.30;99.90;;;;;;4989113;28;20489;-71
2024/03/09 03:38:07;;;;;;;20.87;10.03;;;4.30;99.90;;;;;;4993473;28;20438;-72
2024/03/09 03:40:33;;;;;;;17.77;8.97;;;4.30;99.90;;;;;;4993356;28;20488;-71
2024/03/09 03:43:02;;;;;;;18.90;8.90;;;4.30;99.90;;;;;;4990563;28;20947;-72
2024/03/09 03:45:29;;;;;;;20.00;11.00;;;4.50;99.90;;;;;;4990098;28;20462;-72
2024/03/09 03:47:56;;;;;;;15.30;7.87;;;4.50;99.90;;;;;;4988033;28;20469;-72
2024/03/09 03:50:24;;;;;;;19.43;10.73;;;4.50;99.90;;;;;;4997887;28;20493;-72
2024/03/09 03:52:51;;;;;;;17.90;8.27;;;4.40;99.90;;;;;;4994033;28;20457;-72
2024/03/09 03:55:17;;;;;;;19.27;10.07;;;4.40;99.90;;;;;;4989829;28;20465;-72
2024/03/09 03:57:44;;;;;;;21.90;10.10;;;4.50;99.90;;;;;;4984883;28;21680;-71
2024/03/09 04:00:13;;;;;;;23.90;10.20;;;4.50;99.90;;;;;;4993871;28;20462;-72
2024/03/09 04:02:41;;;;;;;18.33;8.47;;;4.50;99.90;;;;;;4983751;28;20835;-71
2024/03/09 04:05:08;;;;;;;22.67;9.53;;;4.50;99.90;;;;;;4988814;28;20461;-72
2024/03/09 04:07:37;;;;;;;21.37;11.30;;;4.60;99.90;;;;;;4986537;28;20816;-72
2024/03/09 04:10:04;;;;;;;20.83;9.27;;;4.60;99.90;;;;;;4989922;28;20466;-72
2024/03/09 04:12:31;;;;;;;18.37;9.97;;;4.60;99.90;;;;;;4986706;28;20478;-73
2024/03/09 04:14:58;;;;;;;18.97;9.50;;;4.50;99.90;;;;;;4993933;28;20496;-71
2024/03/09 04:17:25;;;;;;;15.07;9.50;;;4.60;99.90;;;;;;4987240;28;20805;-73
2024/03/09 04:19:52;;;;;;;18.87;9.80;;;4.60;99.90;;;;;;4994732;28;20476;-73
2024/03/09 04:22:19;;;;;;;26.33;10.00;;;4.70;99.90;;;;;;4993768;28;20453;-72
2024/03/09 04:24:48;;;;;;;18.67;8.67;;;4.70;99.90;;;;;;4995429;28;20439;-72
2024/03/09 04:27:14;;;;;;;18.27;9.00;;;4.60;99.90;;;;;;4999080;28;20470;-72
2024/03/09 04:29:44;;;;;;;18.40;8.80;;;4.50;99.90;;;;;;4994615;28;20470;-73
2024/03/09 04:32:13;;;;;;;20.37;10.33;;;4.50;99.90;;;;;;4997698;28;20448;-72
2024/03/09 04:34:40;;;;;;;23.60;11.87;;;4.50;99.90;;;;;;4989248;28;20461;-72
2024/03/09 04:37:07;;;;;;;14.93;8.30;;;4.50;99.90;;;;;;4991030;28;20508;-72
2024/03/09 04:39:38;;;;;;;15.67;9.23;;;4.50;99.90;;;;;;4990865;28;20489;-72
2024/03/09 04:42:07;;;;;;;13.10;9.00;;;4.60;99.90;;;;;;4989619;28;20443;-71
2024/03/09 04:44:34;;;;;;;17.70;8.40;;;4.60;99.90;;;;;;5000131;28;20918;-72
2024/03/09 04:47:01;;;;;;;11.33;7.63;;;4.60;99.90;;;;;;4997123;28;20849;-71
2024/03/09 04:49:29;;;;;;;15.20;8.93;;;4.70;99.90;;;;;;4998534;28;20484;-72
2024/03/09 04:51:56;;;;;;;16.67;8.97;;;4.60;99.90;;;;;;4987060;28;20539;-72
2024/03/09 04:54:23;;;;;;;16.23;8.60;;;4.60;99.90;;;;;;4998126;28;20959;-72
2024/03/09 04:56:50;;;;;;;16.63;10.63;;;4.70;99.90;;;;;;4991425;28;20860;-72
2024/03/09 04:59:18;;;;;;;19.60;12.33;;;4.60;99.90;;;;;;4991523;28;20485;-72
2024/03/09 05:01:45;;;;;;;17.77;10.00;;;4.50;99.90;;;;;;4991414;28;20547;-72
2024/03/09 05:04:14;;;;;;;16.23;9.60;;;4.50;99.90;;;;;;4995809;28;20551;-72
2024/03/09 05:06:41;;;;;;;20.17;8.90;;;4.50;99.90;;;;;;4997128;28;20895;-71
2024/03/09 05:09:09;;;;;;;11.23;8.17;;;4.50;99.90;;;;;;4995858;28;20558;-71
2024/03/09 05:11:36;;;;;;;16.40;9.67;;;4.50;99.90;;;;;;4992101;28;20494;-71
2024/03/09 05:14:02;;;;;;;11.03;7.23;;;4.40;99.90;;;;;;4992756;28;20471;-72
2024/03/09 05:16:31;;;;;;;15.00;8.17;;;4.40;99.90;;;;;;4992580;28;24215;-72
2024/03/09 05:18:58;;;;;;;17.57;10.63;;;4.40;99.90;;;;;;4997401;28;20459;-71
2024/03/09 05:21:25;;;;;;;21.83;8.23;;;4.30;99.90;;;;;;4988677;28;20433;-72
2024/03/09 05:23:52;;;;;;;16.83;8.70;;;4.20;99.90;;;;;;4989008;28;20443;-72
2024/03/09 05:26:18;;;;;;;16.57;8.20;;;4.10;99.90;;;;;;4993722;28;20443;-72
2024/03/09 05:28:45;;;;;;;16.43;8.87;;;4.10;99.90;;;;;;4987814;28;20436;-72
2024/03/09 05:31:23;;;;;;;13.20;7.73;;;4.10;99.90;;;;;;4995969;28;20473;-71
2024/03/09 05:33:52;;;;;;;12.87;8.17;;;4.20;99.90;;;;;;4997090;28;20883;-71
2024/03/09 05:36:18;;;;;;;13.90;7.80;;;4.10;99.90;;;;;;4994949;28;20471;-72
2024/03/09 05:38:48;;;;;;;20.77;11.47;;;4.10;99.90;;;;;;4990663;28;20466;-72
2024/03/09 05:41:16;;;;;;;16.30;8.87;;;4.00;99.90;;;;;;4991299;28;22022;-71
2024/03/09 05:43:44;;;;;;;19.90;10.50;;;4.10;99.90;;;;;;4987651;28;20485;-72
2024/03/09 05:46:14;;;;;;;17.70;8.67;;;4.10;99.90;;;;;;4994320;28;20515;-72
2024/03/09 05:48:42;;;;;;;30.60;11.03;;;4.10;99.90;;;;;;4986250;28;20553;-72
2024/03/09 05:51:11;;;;;;;11.80;7.00;;;4.10;99.90;;;;;;4996667;28;20487;-72
2024/03/09 05:53:38;;;;;;;17.63;9.23;;;4.10;99.90;;;;;;4994604;28;20436;-72
2024/03/09 05:56:06;;;;;;;24.83;10.50;;;4.10;99.90;;;;;;4999059;28;20491;-71
2024/03/09 05:58:32;;;;;;;10.43;7.10;;;4.20;99.90;;;;;;4991579;28;20523;-71
2024/03/09 06:00:58;;;;;;;13.40;7.73;;;4.20;99.90;;;;;;4987268;28;20447;-72
2024/03/09 06:03:25;;;;;;;11.63;5.83;;;4.10;99.90;;;;;;4986265;28;21177;-73
2024/03/09 06:05:52;;;;;;;23.07;8.57;;;4.20;99.90;;;;;;4988755;28;20561;-71
2024/03/09 06:08:21;;;;;;;17.33;9.47;;;4.20;99.90;;;;;;4993173;28;20884;-71
2024/03/09 06:10:49;;;;;;;20.83;9.87;;;4.30;99.90;;;;;;4988830;28;20560;-72
2024/03/09 06:13:17;;;;;;;13.50;7.47;;;4.30;99.90;;;;;;4990452;28;20462;-71
2024/03/09 06:15:45;;;;;;;15.67;8.83;;;4.40;99.90;;;;;;4991710;28;20882;-71
2024/03/09 06:18:12;;;;;;;15.87;8.73;;;4.50;99.90;;;;;;4998955;28;20440;-70
2024/03/09 06:20:41;;;;;;;14.40;7.27;;;4.50;99.90;;;;;;4997909;28;20508;-72
2024/03/09 06:23:08;;;;;;;13.40;7.00;;;4.50;99.90;;;;;;4998617;28;20465;-71
2024/03/09 06:25:36;;;;;;;14.60;7.60;;;4.60;99.90;;;;;;4995716;28;20484;-71
2024/03/09 06:28:05;;;;;;;11.07;8.23;;;4.60;99.90;;;;;;5001653;28;20461;-71
2024/03/09 06:30:32;;;;;;;18.60;6.43;;;4.60;99.90;;;;;;4999936;28;20484;-72
2024/03/09 06:33:00;;;;;;;20.00;8.37;;;4.70;99.90;;;;;;4975570;28;20440;-72
2024/03/09 06:35:27;;;;;;;13.10;8.03;;;4.80;99.90;;;;;;4993219;28;20486;-72
2024/03/09 06:37:59;;;;;;;12.67;7.10;;;4.90;99.90;;;;;;4984251;28;20465;-72
2024/03/09 06:40:26;;;;;;;8.73;6.37;;;4.90;99.90;;;;;;4983728;28;20621;-73
2024/03/09 06:42:59;;;;;;;14.87;8.63;;;5.00;99.90;;;;;;5002569;28;20473;-73
2024/03/09 06:45:26;;;;;;;19.13;8.33;;;5.00;99.90;;;;;;4993877;28;20436;-72
2024/03/09 06:47:53;;;;;;;16.73;8.83;;;5.10;99.90;;;;;;4983596;28;20588;-72
2024/03/09 06:50:19;;;;;;;11.53;7.30;;;5.10;99.90;;;;;;5002230;28;20517;-72
2024/03/09 06:52:46;;;;;;;15.67;6.20;;;5.10;99.90;;;;;;5002833;28;20436;-73
2024/03/09 06:55:14;;;;;;;10.63;6.33;;;5.20;99.90;;;;;;4999644;28;22090;-72
2024/03/09 06:57:41;;;;;;;13.33;5.87;;;5.10;99.90;;;;;;4988307;28;20923;-72
2024/03/09 07:00:14;;;;;;;18.57;11.60;;;5.10;99.90;;;;;;4994154;28;20572;-72
2024/03/09 07:02:41;;;;;;;16.37;7.87;;;5.10;99.90;;;;;;5001957;28;20475;-72
2024/03/09 07:05:09;;;;;;;8.63;6.60;;;5.00;99.90;;;;;;4994525;28;20575;-72
2024/03/09 07:07:36;;;;;;;15.90;9.40;;;5.00;99.90;;;;;;4986862;28;20457;-71
2024/03/09 07:10:07;;;;;;;11.83;8.10;;;5.10;99.90;;;;;;4993633;28;20558;-73
2024/03/09 07:12:37;;;;;;;25.33;6.83;;;5.10;99.90;;;;;;4998592;28;20817;-72
2024/03/09 07:15:06;;;;;;;11.30;8.20;;;5.10;99.90;;;;;;4994297;28;20464;-72
2024/03/09 07:17:35;;;;;;;9.43;6.20;;;5.10;99.90;;;;;;4996167;28;20592;-72
2024/03/09 07:20:10;;;;;;;7.53;4.37;;;5.20;99.90;;;;;;4984911;28;20461;-72
2024/03/09 07:22:39;;;;;;;12.40;6.90;;;5.20;99.90;;;;;;4991335;28;20456;-72
2024/03/09 07:25:07;;;;;;;13.87;8.13;;;5.20;99.90;;;;;;5001153;28;20466;-72
2024/03/09 07:27:34;;;;;;;18.77;7.30;;;5.20;99.90;;;;;;4998946;28;20439;-72
2024/03/09 07:30:03;;;;;;;11.27;6.80;;;5.30;99.90;;;;;;4986995;28;20595;-72
2024/03/09 07:32:31;;;;;;;9.83;7.13;;;5.20;99.90;;;;;;4990479;28;20525;-72
2024/03/09 07:34:59;;;;;;;12.20;6.93;;;5.40;99.90;;;;;;4995478;28;20604;-71
2024/03/09 07:37:26;;;;;;;8.80;7.20;;;5.30;99.90;;;;;;4993450;28;20580;-72
2024/03/09 07:39:54;;;;;;;8.27;6.90;;;5.30;99.90;;;;;;4998890;28;20482;-71
2024/03/09 07:42:20;;;;;;;9.50;6.40;;;5.40;99.90;;;;;;4995716;28;20523;-72
2024/03/09 07:44:47;;;;;;;18.20;7.90;;;5.30;99.90;;;;;;4996387;28;20469;-72
2024/03/09 07:47:14;;;;;;;17.67;8.97;;;5.50;99.90;;;;;;4988613;28;20436;-72
2024/03/09 07:49:41;;;;;;;15.73;7.20;;;5.50;99.90;;;;;;4991807;28;20489;-72
2024/03/09 07:52:09;;;;;;;12.83;6.10;;;5.40;99.90;;;;;;4990093;28;20435;-72
2024/03/09 07:54:37;;;;;;;7.70;5.57;;;5.60;99.90;;;;;;4988380;28;20467;-71
2024/03/09 07:57:04;;;;;;;11.10;6.80;;;5.60;99.90;;;;;;4989105;28;21010;-71
2024/03/09 07:59:31;;;;;;;11.80;7.77;;;5.50;99.90;;;;;;4984186;28;20509;-72
2024/03/09 08:01:58;;;;;;;7.50;4.47;;;5.80;99.90;;;;;;4986079;28;20520;-73
2024/03/09 08:04:26;;;;;;;6.37;4.30;;;5.90;99.90;;;;;;4986541;28;20436;-72
2024/03/09 08:06:54;;;;;;;13.23;7.53;;;6.00;99.90;;;;;;4991133;28;20584;-72
2024/03/09 08:09:22;;;;;;;16.10;7.17;;;6.00;99.90;;;;;;4990071;28;20480;-72
2024/03/09 08:11:50;;;;;;;13.47;6.47;;;6.10;99.90;;;;;;4992358;28;20484;-72
2024/03/09 08:14:18;;;;;;;5.40;3.07;;;6.20;99.90;;;;;;4986285;28;22356;-72
2024/03/09 08:16:45;;;;;;;14.23;7.90;;;6.20;99.90;;;;;;4991328;28;20841;-72
2024/03/09 08:19:13;;;;;;;16.67;7.63;;;6.20;99.90;;;;;;4992283;28;20496;-72
2024/03/09 08:21:40;;;;;;;10.23;4.77;;;6.40;99.90;;;;;;4989070;28;20926;-72
2024/03/09 08:24:07;;;;;;;7.87;4.53;;;6.30;99.90;;;;;;4995050;28;20477;-72
2024/03/09 08:26:35;;;;;;;6.33;4.00;;;6.30;99.90;;;;;;4967752;28;20465;-72
2024/03/09 08:29:02;;;;;;;15.97;6.57;;;6.10;99.90;;;;;;4987023;28;20535;-71
2024/03/09 08:31:28;;;;;;;7.87;4.57;;;6.10;99.90;;;;;;4996461;28;20465;-72
2024/03/09 08:33:55;;;;;;;7.47;4.97;;;6.10;99.90;;;;;;4986868;28;20571;-72
2024/03/09 08:36:23;;;;;;;9.33;5.70;;;6.10;99.90;;;;;;4996580;28;20835;-71
2024/03/09 08:38:52;;;;;;;35.90;9.73;;;6.30;99.90;;;;;;4992855;28;20691;-73
2024/03/09 08:41:21;;;;;;;14.07;6.33;;;6.50;99.90;;;;;;4997590;28;20444;-72
2024/03/09 08:43:49;;;;;;;14.33;7.47;;;6.60;99.90;;;;;;4990282;28;20996;-72
2024/03/09 08:46:17;;;;;;;9.03;6.20;;;6.80;99.90;;;;;;4985143;28;20473;-71
2024/03/09 08:48:44;;;;;;;16.63;7.67;;;6.90;99.90;;;;;;5000897;28;20461;-71
2024/03/09 08:51:11;;;;;;;9.53;6.40;;;7.10;99.90;;;;;;4995148;28;20473;-71
2024/03/09 08:53:38;;;;;;;14.17;9.90;;;7.50;99.90;;;;;;4999711;28;20552;-70
2024/03/09 08:56:05;;;;;;;11.00;5.93;;;8.10;99.90;;;;;;4995928;28;20468;-71
2024/03/09 08:58:34;;;;;;;13.47;6.03;;;8.90;99.90;;;;;;4993374;28;20956;-71
2024/03/09 09:01:04;;;;;;;16.63;6.17;;;9.20;99.90;;;;;;5000334;28;20473;-70
2024/03/09 09:03:30;;;;;;;15.47;8.73;;;9.40;99.90;;;;;;4999047;28;20597;-71
2024/03/09 09:05:57;;;;;;;20.50;6.40;;;9.60;99.90;;;;;;4995344;28;20464;-72
2024/03/09 09:08:25;;;;;;;12.53;5.97;;;9.80;99.90;;;;;;4997292;28;20592;-72
2024/03/09 09:10:53;;;;;;;18.70;8.27;;;10.20;99.90;;;;;;4994881;28;20556;-70
2024/03/09 09:13:21;;;;;;;9.67;6.97;;;10.40;99.90;;;;;;4989371;28;20465;-72
2024/03/09 09:15:48;;;;;;;11.70;6.87;;;10.80;99.90;;;;;;4996809;28;21117;-71
2024/03/09 09:18:17;;;;;;;13.00;7.40;;;11.50;99.90;;;;;;4990831;28;20584;-72
2024/03/09 09:20:48;;;;;;;8.80;5.77;;;12.40;99.90;;;;;;4986239;28;20692;-71
2024/03/09 09:23:15;;;;;;;20.00;9.53;;;13.40;99.90;;;;;;4996367;28;20476;-71
2024/03/09 09:25:41;;;;;;;14.33;8.70;;;13.30;99.90;;;;;;4997724;28;20461;-72
2024/03/09 09:28:09;;;;;;;10.07;5.97;;;14.10;99.90;;;;;;4999370;28;20504;-71
2024/03/09 09:30:35;;;;;;;8.60;4.03;;;15.10;99.90;;;;;;5003228;28;20492;-71
2024/03/09 09:33:02;;;;;;;18.03;7.60;;;15.50;99.90;;;;;;4987710;28;20560;-71
2024/03/09 09:35:30;;;;;;;13.87;7.63;;;15.90;99.90;;;;;;4996842;28;20469;-72
2024/03/09 09:37:59;;;;;;;14.80;8.87;;;16.50;99.90;;;;;;4992118;28;22559;-72
2024/03/09 09:40:26;;;;;;;13.37;7.70;;;16.60;99.90;;;;;;4973984;28;20478;-71
2024/03/09 09:42:53;;;;;;;12.43;8.30;;;16.70;99.90;;;;;;4988015;28;20461;-72
2024/03/09 09:45:22;;;;;;;11.33;6.63;;;16.40;99.90;;;;;;5000032;28;20461;-72
2024/03/09 09:47:49;;;;;;;7.47;6.27;;;16.70;99.90;;;;;;4989310;28;20978;-72
2024/03/09 09:50:18;;;;;;;16.40;9.20;;;16.30;99.90;;;;;;5002153;28;20480;-72
2024/03/09 09:52:48;;;;;;;15.80;9.37;;;16.70;99.90;;;;;;4998513;28;20796;-71
2024/03/09 09:55:16;;;;;;;15.03;8.33;;;17.40;99.50;;;;;;4988516;28;20535;-72
2024/03/09 09:57:45;;;;;;;15.33;8.40;;;17.50;99.20;;;;;;4987145;28;20486;-71
2024/03/09 10:00:13;;;;;;;10.97;7.37;;;17.20;98.60;;;;;;4990323;28;20483;-71
2024/03/09 10:02:44;;;;;;;13.07;7.53;;;17.70;98.50;;;;;;4991172;28;23665;-72
2024/03/09 10:05:14;;;;;;;9.60;6.97;;;17.30;97.50;;;;;;5001710;28;20456;-71
2024/03/09 10:07:58;;;;;;;10.10;6.50;;;17.40;97.10;;;;;;4998585;28;20457;-72
2024/03/09 10:10:29;;;;;;;14.67;10.17;;;17.60;97.00;;;;;;4986399;28;20636;-70
2024/03/09 10:13:05;;;;;;;10.50;7.10;;;18.40;97.10;;;;;;4990047;28;20461;-73
2024/03/09 10:15:33;;;;;;;14.87;8.20;;;18.20;95.90;;;;;;4988379;28;20713;-72
2024/03/09 10:18:00;;;;;;;9.43;7.10;;;18.70;96.60;;;;;;4989033;28;20490;-71
2024/03/09 10:20:29;;;;;;;10.63;7.00;;;18.90;95.00;;;;;;4992833;28;20485;-72
2024/03/09 10:22:59;;;;;;;9.00;6.10;;;19.00;95.10;;;;;;4988793;28;20461;-71
2024/03/09 10:25:27;;;;;;;8.87;6.97;;;18.90;94.30;;;;;;4997184;28;20798;-71
2024/03/09 10:27:58;;;;;;;12.97;8.43;;;19.20;94.20;;;;;;4992933;28;20854;-71
2024/03/09 10:30:25;;;;;;;10.73;6.93;;;20.00;93.40;;;;;;4998884;28;21187;-71
2024/03/09 10:32:53;;;;;;;11.33;8.13;;;19.70;92.40;;;;;;4984262;28;20529;-72
2024/03/09 10:35:20;;;;;;;11.47;7.20;;;19.50;93.10;;;;;;4990467;28;21435;-72
2024/03/09 10:37:50;;;;;;;15.77;8.93;;;20.10;93.00;;;;;;4997119;28;20956;-71
2024/03/09 10:40:20;;;;;;;11.20;9.67;;;21.10;91.80;;;;;;4988256;28;20802;-72
2024/03/09 10:42:49;;;;;;;9.43;5.73;;;21.50;91.30;;;;;;4981111;28;20604;-71
2024/03/09 10:45:18;;;;;;;10.37;7.87;;;21.70;89.20;;;;;;4997938;28;20508;-72
2024/03/09 10:47:49;;;;;;;16.27;9.33;;;20.90;89.20;;;;;;4997415;28;20457;-72
2024/03/09 10:50:23;;;;;;;14.90;10.40;;;21.50;89.40;;;;;;4990200;28;20884;-72
2024/03/09 10:53:01;;;;;;;14.10;9.87;;;21.40;88.40;;;;;;4985940;28;20471;-72
2024/03/09 10:55:39;;;;;;;11.90;8.13;;;21.00;90.40;;;;;;4976309;28;20842;-71
2024/03/09 10:58:06;;;;;;;12.77;9.10;;;21.50;87.70;;;;;;4995260;28;21015;-73
2024/03/09 11:00:34;;;;;;;13.53;8.40;;;20.80;87.50;;;;;;5001317;28;20984;-72
2024/03/09 11:03:03;;;;;;;15.20;8.23;;;20.80;87.30;;;;;;5000406;28;20605;-72
2024/03/09 11:05:31;;;;;;;13.50;10.20;;;20.90;88.50;;;;;;4999629;28;20561;-72
2024/03/09 11:07:58;;;;;;;12.90;9.20;;;21.70;87.90;;;;;;4976818;28;20461;-72
2024/03/09 11:10:26;;;;;;;11.33;8.20;;;21.40;85.30;;;;;;4994876;28;20501;-72
2024/03/09 11:12:55;;;;;;;13.57;8.87;;;21.30;87.00;;;;;;4991005;28;20461;-71
2024/03/09 11:15:25;;;;;;;12.97;8.70;;;21.60;87.40;;;;;;4999548;28;22179;-72
2024/03/09 11:17:54;;;;;;;10.20;8.03;;;21.80;88.30;;;;;;4989624;28;20558;-71
2024/03/09 11:20:22;;;;;;;12.60;8.50;;;22.60;83.80;;;;;;4986585;28;20481;-71
2024/03/09 11:22:50;;;;;;;11.20;7.43;;;22.40;84.60;;;;;;4986203;28;20480;-71
2024/03/09 11:25:35;;;;;;;12.50;6.60;;;23.50;82.70;;;;;;4990767;28;20550;-72
2024/03/09 11:28:03;;;;;;;13.77;9.50;;;22.80;80.30;;;;;;4990873;28;20449;-73
2024/03/09 11:30:31;;;;;;;11.30;8.43;;;22.70;81.80;;;;;;4987322;28;20486;-72
2024/03/09 11:32:58;;;;;;;15.83;8.70;;;22.90;83.20;;;;;;4987045;28;20514;-72
2024/03/09 11:35:31;;;;;;;14.63;8.80;;;23.30;81.40;;;;;;4982978;28;20519;-72
2024/03/09 11:38:00;;;;;;;12.73;7.87;;;24.10;80.30;;;;;;4996388;28;20489;-70
2024/03/09 11:40:28;;;;;;;16.47;9.40;;;23.20;78.90;;;;;;4991361;28;20540;-71
2024/03/09 11:43:03;;;;;;;12.10;7.77;;;22.50;81.80;;;;;;4985479;28;20472;-71
2024/03/09 11:45:35;;;;;;;14.40;8.30;;;22.80;79.10;;;;;;4996355;28;20493;-72
2024/03/09 11:48:02;;;;;;;10.77;7.37;;;22.50;79.00;;;;;;4998103;28;20461;-71
2024/03/09 11:50:29;;;;;;;10.40;8.03;;;22.80;79.90;;;;;;4998899;28;20581;-72
2024/03/09 11:52:56;;;;;;;11.97;7.27;;;23.10;77.10;;;;;;4992789;28;20962;-72
2024/03/09 11:55:26;;;;;;;10.63;7.10;;;23.10;77.40;;;;;;4996551;28;20456;-72
2024/03/09 11:57:53;;;;;;;10.73;7.47;;;22.80;78.90;;;;;;4987425;28;20573;-72
2024/03/09 12:00:20;;;;;;;10.00;5.57;;;21.90;78.40;;;;;;4991834;28;20493;-72
2024/03/09 12:02:49;;;;;;;6.07;4.53;;;21.70;78.70;;;;;;4993633;28;20462;-72
2024/03/09 12:05:16;;;;;;;8.83;5.23;;;21.60;78.60;;;;;;4993429;28;20457;-72
2024/03/09 12:07:44;;;;;;;12.97;6.47;;;21.30;80.10;;;;;;5022966;22;20501;-68
2024/03/09 12:10:14;;;;;;;12.50;8.53;;;21.40;79.00;;;;;;5032438;28;20525;-69
2024/03/09 12:12:43;;;;;;;13.60;7.93;;;22.10;81.20;;;;;;5041751;28;20459;-68
2024/03/09 12:15:11;;;;;;;13.20;8.67;;;24.00;79.90;;;;;;5041807;28;20472;-68
2024/03/09 12:17:39;;;;;;;9.97;5.63;;;23.80;77.30;;;;;;5034410;28;20474;-68
2024/03/09 12:20:12;;;;;;;15.60;7.40;;;24.70;75.50;;;;;;5024348;28;20490;-67
2024/03/09 12:22:40;;;;;;;12.23;5.93;;;23.90;73.90;;;;;;5023400;28;20463;-66
2024/03/09 12:25:08;;;;;;;11.30;7.40;;;23.00;73.40;;;;;;5039336;28;20510;-67
2024/03/09 12:27:37;;;;;;;13.67;6.93;;;22.40;76.20;;;;;;5035383;28;20461;-66
2024/03/09 12:30:07;;;;;;;19.23;7.50;;;22.60;77.30;;;;;;5027510;28;20544;-67
2024/03/09 12:32:34;;;;;;;8.40;7.57;;;23.40;76.80;;;;;;5032351;28;20456;-67
2024/03/09 12:35:01;;;;;;;14.10;6.57;;;24.10;76.00;;;;;;5030716;28;20830;-67
2024/03/09 12:37:29;;;;;;;11.83;6.50;;;24.00;74.10;;;;;;5034873;28;21160;-66
2024/03/09 12:40:17;;;;;;;10.13;7.23;;;23.50;74.10;;;;;;5033118;28;20562;-67
2024/03/09 12:42:45;;;;;;;14.77;8.50;;;24.20;75.40;;;;;;5004284;28;20491;-67
2024/03/09 12:45:22;;;;;;;11.47;7.87;;;24.00;74.10;;;;;;5028702;28;20463;-67
2024/03/09 12:47:54;;;;;;;15.47;8.77;;;23.40;74.30;;;;;;5040687;28;20470;-66
2024/03/09 12:50:22;;;;;;;9.73;8.07;;;23.90;76.30;;;;;;5034456;28;20478;-67